Tall Kayf, Iraq
Current Conditions -  °F | °C
As of 3:00 PM on Friday 19 Dec 2014 (Local Time) from ORER Reporting Station
Scattered Clouds Scattered Clouds  
Wind Chill: 57°   Ceiling: Unl
Heat Index: 57°   Visibility: 6mi
Dew Point: 43°   Wind: 5mph
Humidity: 59%   Direction: 120°ESE
Pressure: 30.09"   Gusts: NA
Location:  36.48°N, 43.13°E
Report Text: ORER 191200Z 12004KT 9999 FEW035 SCT090 14/06 Q1019 NOSIG
Loading
Personal Weather Stations






























Interactive Weather Map New forecast layout! Learn more

10-Day Weather Forecast

Advertisements
Track Severe Weather on mobile